createdAt,value
2017-01-26T00:00:23.537Z,82.62
2017-01-26T00:00:51.686Z,82.91
2017-01-26T00:01:19.885Z,83.11
2017-01-26T00:01:48.101Z,83.69
2017-01-26T00:02:16.294Z,83.69
2017-01-26T00:02:44.458Z,83.11
2017-01-26T00:03:12.642Z,82.91
2017-01-26T00:03:40.773Z,83.69
2017-01-26T00:04:08.936Z,84.27
2017-01-26T00:04:37.118Z,84.27
2017-01-26T00:05:05.261Z,84.08
2017-01-26T00:05:33.459Z,83.88
2017-01-26T00:06:01.833Z,84.27
2017-01-26T00:06:29.988Z,83.88
2017-01-26T00:06:58.144Z,84.46
2017-01-26T00:07:26.281Z,84.94
2017-01-26T00:07:54.536Z,84.56
2017-01-26T00:08:22.776Z,84.94
2017-01-26T00:08:50.939Z,84.66
2017-01-26T00:09:19.092Z,84.27
2017-01-26T00:09:47.265Z,84.56
2017-01-26T00:10:15.426Z,84.5
2017-01-26T00:10:43.573Z,84.17
2017-01-26T00:11:11.715Z,84.6
2017-01-26T00:11:39.884Z,83.92
2017-01-26T00:12:08.032Z,84.21
2017-01-26T00:12:36.174Z,83.73
2017-01-26T00:13:04.326Z,83.44
2017-01-26T00:13:32.478Z,83.73
2017-01-26T00:14:00.659Z,83.44
2017-01-26T00:14:28.925Z,83.53
2017-01-26T00:14:57.060Z,83.53
2017-01-26T00:15:25.235Z,84.11
2017-01-26T00:15:53.405Z,83.92
2017-01-26T00:16:21.551Z,84.41
2017-01-26T00:16:49.709Z,84.31
2017-01-26T00:17:17.931Z,84.01
2017-01-26T00:17:46.120Z,83.92
2017-01-26T00:18:14.300Z,84.11
2017-01-26T00:18:42.481Z,84.31
2017-01-26T00:19:10.665Z,84.21
2017-01-26T00:19:38.850Z,84.11
2017-01-26T00:20:07.002Z,84.11
2017-01-26T00:20:35.163Z,84.31
2017-01-26T00:21:03.400Z,84.27
2017-01-26T00:21:31.561Z,84.27
2017-01-26T00:21:59.722Z,84.11
2017-01-26T00:22:27.902Z,84.36
2017-01-26T00:22:56.047Z,83.98
2017-01-26T00:23:24.209Z,83.98
2017-01-26T00:23:52.360Z,83.92
2017-01-26T00:24:20.501Z,84.5
2017-01-26T00:24:48.658Z,84.66
2017-01-26T00:25:16.942Z,84.21
2017-01-26T00:25:45.186Z,84.5
2017-01-26T00:26:13.516Z,84.27
2017-01-26T00:26:41.699Z,84.5
2017-01-26T00:27:09.867Z,83.34
2017-01-26T00:27:38.016Z,82.95
2017-01-26T00:28:06.154Z,83.92
2017-01-26T00:28:34.337Z,83.15
2017-01-26T00:29:02.465Z,82.95
2017-01-26T00:29:30.600Z,83.05
2017-01-26T00:29:58.771Z,83.15
2017-01-26T00:30:27.014Z,83.15
2017-01-26T00:30:55.153Z,83.15
2017-01-26T00:31:23.413Z,82.86
2017-01-26T00:31:51.644Z,83.15
2017-01-26T00:32:19.969Z,82.95
2017-01-26T00:32:48.209Z,83.25
2017-01-26T00:33:16.378Z,83.34
2017-01-26T00:33:44.573Z,82.95
2017-01-26T00:34:12.864Z,83.34
2017-01-26T00:34:41.026Z,82.95
2017-01-26T00:35:09.246Z,83.44
2017-01-26T00:35:37.400Z,83.44
2017-01-26T00:36:05.564Z,83.53
2017-01-26T00:36:33.716Z,83.53
2017-01-26T00:37:01.870Z,83.44
2017-01-26T00:37:30.112Z,84.11
2017-01-26T00:37:58.370Z,83.4
2017-01-26T00:38:26.611Z,83.83
2017-01-26T00:38:54.776Z,83.44
2017-01-26T00:39:22.927Z,83.34
2017-01-26T00:39:51.078Z,83.63
2017-01-26T00:40:19.256Z,83.83
2017-01-26T00:40:47.423Z,83.34
2017-01-26T00:41:15.601Z,82.81
2017-01-26T00:41:43.751Z,83.25
2017-01-26T00:42:11.998Z,82.72
2017-01-26T00:42:40.137Z,82.86
2017-01-26T00:43:08.379Z,82.81
2017-01-26T00:43:36.537Z,82.86
2017-01-26T00:44:04.719Z,83.69
2017-01-26T00:44:32.929Z,83.88
2017-01-26T00:45:01.207Z,82.95
2017-01-26T00:45:29.368Z,83.34
2017-01-26T00:45:57.524Z,83.01
2017-01-26T00:46:25.689Z,82.95
2017-01-26T00:46:53.849Z,83.63
2017-01-26T00:47:22.010Z,83.49
2017-01-26T00:47:50.191Z,83.63
2017-01-26T00:48:18.459Z,83.49
2017-01-26T00:48:46.704Z,83.3
2017-01-26T00:49:14.865Z,83.01
2017-01-26T00:49:43.028Z,82.91
2017-01-26T00:50:11.215Z,83.2
2017-01-26T00:50:39.390Z,83.2
2017-01-26T00:51:07.551Z,83.01
2017-01-26T00:51:35.706Z,83.44
2017-01-26T00:52:03.946Z,82.81
2017-01-26T00:52:32.118Z,83.2
2017-01-26T00:53:00.396Z,83.11
2017-01-26T00:53:28.577Z,83.49
2017-01-26T00:53:56.735Z,83.49
2017-01-26T00:54:24.906Z,83.11
2017-01-26T00:54:53.045Z,82.72
2017-01-26T00:55:21.250Z,82.81
2017-01-26T00:55:49.412Z,83.01
2017-01-26T00:56:17.593Z,83.2
2017-01-26T00:56:45.743Z,82.72
2017-01-26T00:57:13.927Z,83.01
2017-01-26T00:57:42.081Z,83.49
2017-01-26T00:58:10.241Z,83.4
2017-01-26T00:58:38.419Z,82.91
2017-01-26T00:59:06.677Z,83.88
2017-01-26T00:59:34.849Z,83.59
2017-01-26T01:00:03.027Z,83.69
2017-01-26T01:00:31.610Z,83.49
2017-01-26T01:00:59.797Z,84.08
2017-01-26T01:01:27.949Z,83.3
2017-01-26T01:01:56.116Z,83.4
2017-01-26T01:02:24.275Z,84.66
2017-01-26T01:02:52.447Z,83.4
2017-01-26T01:03:20.608Z,83.11
2017-01-26T01:03:48.746Z,83.3
2017-01-26T01:04:16.896Z,83.88
2017-01-26T01:04:45.270Z,83.59
2017-01-26T01:05:13.447Z,83.69
2017-01-26T01:05:41.763Z,83.49
2017-01-26T01:06:10.006Z,83.78
2017-01-26T01:06:38.140Z,83.2
2017-01-26T01:07:06.318Z,83.3
2017-01-26T01:07:34.500Z,82.53
2017-01-26T01:08:02.677Z,82.14
2017-01-26T01:08:30.931Z,81.65
2017-01-26T01:08:59.389Z,81.46
2017-01-26T01:09:27.594Z,81.46
2017-01-26T01:09:55.858Z,81.95
2017-01-26T01:10:24.111Z,81.56
2017-01-26T01:10:52.652Z,80.88
2017-01-26T01:11:20.776Z,80.88
2017-01-26T01:11:48.984Z,80.59
2017-01-26T01:12:17.152Z,80.88
2017-01-26T01:12:45.592Z,80.98
2017-01-26T01:13:13.819Z,80.69
2017-01-26T01:13:41.985Z,80.79
2017-01-26T01:14:10.529Z,80.49
2017-01-26T01:14:38.727Z,80.69
2017-01-26T01:15:07.012Z,79.91
2017-01-26T01:15:35.148Z,80.11
2017-01-26T01:16:03.432Z,79.91
2017-01-26T01:16:31.584Z,80.11
2017-01-26T01:17:00.283Z,80.2
2017-01-26T01:17:28.518Z,80.24
2017-01-26T01:17:56.679Z,79.91
2017-01-26T01:18:24.818Z,79.91
2017-01-26T01:18:53.008Z,80.11
2017-01-26T01:19:21.180Z,79.85
2017-01-26T01:19:49.377Z,79.66
2017-01-26T01:20:17.711Z,79.76
2017-01-26T01:20:45.889Z,79.47
2017-01-26T01:21:14.041Z,79.37
2017-01-26T01:21:42.241Z,79.47
2017-01-26T01:22:10.415Z,79.37
2017-01-26T01:22:38.589Z,79.37
2017-01-26T01:23:06.738Z,79.37
2017-01-26T01:23:34.935Z,79.37
2017-01-26T01:24:03.093Z,79.57
2017-01-26T01:24:31.347Z,79.66
2017-01-26T01:24:59.614Z,79.47
2017-01-26T01:25:27.815Z,79.57
2017-01-26T01:25:55.976Z,79.37
2017-01-26T01:26:24.160Z,79.37
2017-01-26T01:26:52.337Z,79.85
2017-01-26T01:27:20.539Z,79.85
2017-01-26T01:27:48.775Z,80.34
2017-01-26T01:28:17.085Z,80.34
2017-01-26T01:28:45.261Z,80.44
2017-01-26T01:29:13.409Z,79.76
2017-01-26T01:29:41.639Z,80.05
2017-01-26T01:30:09.894Z,80.05
2017-01-26T01:30:38.045Z,80.34
2017-01-26T01:31:06.223Z,79.66
2017-01-26T01:31:34.377Z,79.76
2017-01-26T01:32:02.548Z,79.76
2017-01-26T01:32:30.714Z,79.85
2017-01-26T01:32:58.881Z,79.76
2017-01-26T01:33:27.063Z,79.76
2017-01-26T01:33:55.217Z,80.34
2017-01-26T01:34:23.389Z,80.15
2017-01-26T01:34:51.766Z,80.15
2017-01-26T01:35:19.979Z,79.85
2017-01-26T01:35:48.159Z,80.15
2017-01-26T01:36:16.377Z,80.05
2017-01-26T01:36:44.649Z,80.15
2017-01-26T01:37:12.832Z,80.15
2017-01-26T01:37:40.993Z,80.34
2017-01-26T01:38:09.235Z,80.34
2017-01-26T01:38:37.393Z,79.95
2017-01-26T01:39:05.527Z,79.76
2017-01-26T01:39:33.687Z,79.95
2017-01-26T01:40:01.857Z,79.95
2017-01-26T01:40:30.034Z,80.11
2017-01-26T01:40:58.182Z,80.3
2017-01-26T01:41:26.355Z,80.34
2017-01-26T01:41:54.537Z,80.44
2017-01-26T01:42:22.671Z,79.85
2017-01-26T01:42:50.868Z,79.76
2017-01-26T01:43:19.021Z,79.62
2017-01-26T01:43:47.185Z,79.33
2017-01-26T01:44:15.371Z,79.85
2017-01-26T01:44:43.543Z,79.62
2017-01-26T01:45:11.742Z,79.52
2017-01-26T01:45:39.915Z,80.59
2017-01-26T01:46:08.154Z,79.91
2017-01-26T01:46:36.313Z,80.01
2017-01-26T01:47:04.598Z,80.2
2017-01-26T01:47:32.774Z,80.3
2017-01-26T01:48:00.936Z,80.3
2017-01-26T01:48:29.105Z,80.4
2017-01-26T01:48:57.281Z,80.88
2017-01-26T01:49:25.541Z,80.4
2017-01-26T01:49:53.737Z,80.69
2017-01-26T01:50:21.990Z,80.2
2017-01-26T01:50:50.178Z,80.3
2017-01-26T01:51:18.424Z,80.79
2017-01-26T01:51:46.567Z,80.98
2017-01-26T01:52:14.720Z,80.88
2017-01-26T01:52:42.869Z,80.79
2017-01-26T01:53:11.038Z,80.59
2017-01-26T01:53:39.196Z,80.88
2017-01-26T01:54:07.367Z,80.59
2017-01-26T01:54:35.554Z,81.17
2017-01-26T01:55:03.705Z,81.17
2017-01-26T01:55:31.933Z,81.07
2017-01-26T01:56:00.116Z,80.98
2017-01-26T01:56:28.300Z,81.17
2017-01-26T01:56:56.583Z,80.88
2017-01-26T01:57:24.747Z,80.98
2017-01-26T01:57:52.998Z,81.07
2017-01-26T01:58:21.160Z,80.79
2017-01-26T01:58:49.340Z,80.11
2017-01-26T01:59:17.504Z,80.69
2017-01-26T01:59:45.647Z,80.49
2017-01-26T02:00:13.798Z,80.3
2017-01-26T02:00:41.939Z,80.11
2017-01-26T02:01:10.108Z,79.82
2017-01-26T02:01:38.283Z,80.11
2017-01-26T02:02:06.519Z,80.2
2017-01-26T02:02:34.687Z,79.43
2017-01-26T02:03:02.817Z,80.4
2017-01-26T02:03:30.971Z,80.3
2017-01-26T02:03:59.111Z,80.49
2017-01-26T02:04:27.264Z,80.4
2017-01-26T02:04:55.459Z,80.98
2017-01-26T02:05:23.618Z,81.17
2017-01-26T02:05:51.775Z,81.65
2017-01-26T02:06:20.035Z,81.46
2017-01-26T02:06:48.291Z,81.65
2017-01-26T02:07:16.450Z,81.46
2017-01-26T02:07:44.616Z,81.85
2017-01-26T02:08:12.814Z,80.98
2017-01-26T02:08:40.957Z,81.17
2017-01-26T02:09:09.136Z,80.69
2017-01-26T02:09:37.298Z,80.79
2017-01-26T02:10:05.444Z,80.88
2017-01-26T02:10:33.607Z,80.11
2017-01-26T02:11:01.756Z,80.69
2017-01-26T02:11:29.903Z,80.69
2017-01-26T02:11:58.052Z,80.98
2017-01-26T02:12:26.219Z,80.69
2017-01-26T02:12:54.354Z,81.65
2017-01-26T02:13:22.510Z,81.65
2017-01-26T02:13:50.672Z,82.04
2017-01-26T02:14:18.836Z,82.48
2017-01-26T02:14:47.018Z,81.62
2017-01-26T02:15:15.173Z,81.85
2017-01-26T02:15:43.544Z,81.62
2017-01-26T02:16:11.731Z,81.56
2017-01-26T02:16:40.108Z,81.56
2017-01-26T02:17:08.237Z,81.9
2017-01-26T02:17:36.576Z,82.14
2017-01-26T02:18:04.728Z,82.53
2017-01-26T02:18:32.884Z,82.48
2017-01-26T02:19:01.024Z,82.29
2017-01-26T02:19:29.162Z,82.2
2017-01-26T02:19:57.320Z,82.04
2017-01-26T02:20:25.460Z,81.95
2017-01-26T02:20:53.621Z,82.23
2017-01-26T02:21:21.772Z,82.33
2017-01-26T02:21:49.904Z,82.23
2017-01-26T02:22:18.076Z,82.14
2017-01-26T02:22:46.277Z,82.53
2017-01-26T02:23:14.440Z,81.95
2017-01-26T02:23:42.607Z,81.65
2017-01-26T02:24:10.732Z,81.07
2017-01-26T02:24:38.911Z,81.85
2017-01-26T02:25:07.058Z,81.46
2017-01-26T02:25:35.223Z,81.65
2017-01-26T02:26:03.459Z,82.62
2017-01-26T02:26:31.617Z,81.95
2017-01-26T02:26:59.778Z,81.95
2017-01-26T02:27:27.936Z,81.95
2017-01-26T02:27:56.109Z,81.46
2017-01-26T02:28:24.260Z,81.75
2017-01-26T02:28:52.458Z,81.65
2017-01-26T02:29:20.637Z,81.65
2017-01-26T02:29:48.812Z,81.56
2017-01-26T02:30:16.944Z,81.65
2017-01-26T02:30:45.135Z,82.04
2017-01-26T02:31:13.294Z,81.85
2017-01-26T02:31:41.473Z,82.14
2017-01-26T02:32:09.685Z,82.33
2017-01-26T02:32:37.826Z,82.53
2017-01-26T02:33:06.031Z,81.85
2017-01-26T02:33:34.203Z,81.65
2017-01-26T02:34:02.394Z,80.88
2017-01-26T02:34:30.551Z,81.23
2017-01-26T02:34:58.744Z,81.85
2017-01-26T02:35:26.899Z,82.33
2017-01-26T02:35:55.078Z,82.29
2017-01-26T02:36:23.347Z,82.2
2017-01-26T02:36:51.648Z,82.81
2017-01-26T02:37:19.811Z,83.06
2017-01-26T02:37:47.987Z,83.26
2017-01-26T02:38:16.151Z,82.97
2017-01-26T02:38:44.294Z,82.1
2017-01-26T02:39:12.446Z,83.06
2017-01-26T02:39:40.587Z,82.78
2017-01-26T02:40:08.849Z,82.97
2017-01-26T02:40:37.097Z,83.84
2017-01-26T02:41:05.253Z,82.97
2017-01-26T02:41:33.494Z,82.29
2017-01-26T02:42:01.689Z,82.78
2017-01-26T02:42:29.870Z,82.97
2017-01-26T02:42:58.032Z,83.06
2017-01-26T02:43:26.166Z,82.68
2017-01-26T02:43:54.315Z,82.29
2017-01-26T02:44:22.463Z,82.2
2017-01-26T02:44:50.655Z,82.29
2017-01-26T02:45:18.789Z,82.78
2017-01-26T02:45:46.944Z,82.2
2017-01-26T02:46:15.093Z,82.29
2017-01-26T02:46:43.255Z,82.39
2017-01-26T02:47:11.401Z,82.29
2017-01-26T02:47:39.573Z,82.78
2017-01-26T02:48:07.752Z,82.97
2017-01-26T02:48:35.936Z,82.97
2017-01-26T02:49:04.076Z,82.48
2017-01-26T02:49:32.263Z,82.1
2017-01-26T02:50:00.431Z,82.48
2017-01-26T02:50:28.611Z,82.39
2017-01-26T02:50:56.855Z,82.58
2017-01-26T02:51:25.028Z,82.58
2017-01-26T02:51:53.178Z,82.58
2017-01-26T02:52:21.355Z,82.39
2017-01-26T02:52:49.563Z,82.29
2017-01-26T02:53:17.826Z,82.2
2017-01-26T02:53:45.993Z,82.29
2017-01-26T02:54:14.209Z,81.9
2017-01-26T02:54:42.373Z,82.58
2017-01-26T02:55:11.852Z,82.2
2017-01-26T02:55:40.009Z,82.29
2017-01-26T02:56:08.342Z,83.06
2017-01-26T02:56:36.515Z,82.48
2017-01-26T02:57:04.704Z,82.87
2017-01-26T02:57:32.851Z,83.16
2017-01-26T02:58:01.026Z,82.1
2017-01-26T02:58:29.188Z,82.29
2017-01-26T02:58:57.351Z,81.81
2017-01-26T02:59:25.499Z,82.39
2017-01-26T02:59:53.636Z,82.68
2017-01-26T03:00:21.807Z,83.16
2017-01-26T03:00:49.953Z,82.2
2017-01-26T03:01:18.203Z,82.78
2017-01-26T03:01:46.347Z,82.58
2017-01-26T03:02:14.500Z,82.78
2017-01-26T03:02:42.668Z,82.2
2017-01-26T03:03:10.831Z,83.06
2017-01-26T03:03:39.097Z,83.06
2017-01-26T03:04:07.385Z,83.55
2017-01-26T03:04:35.642Z,83.84
2017-01-26T03:05:03.809Z,84.22
2017-01-26T03:05:32.074Z,83.55
2017-01-26T03:06:00.333Z,83.45
2017-01-26T03:06:28.490Z,84.13
2017-01-26T03:06:56.657Z,84.22
2017-01-26T03:07:24.864Z,84.19
2017-01-26T03:07:53.106Z,84.32
2017-01-26T03:08:21.278Z,84.13
2017-01-26T03:08:49.454Z,83.84
2017-01-26T03:09:17.622Z,85.25
2017-01-26T03:09:45.892Z,85.29
2017-01-26T03:10:14.083Z,85.05
2017-01-26T03:10:42.320Z,84.42
2017-01-26T03:11:10.466Z,84.13
2017-01-26T03:11:38.706Z,83.8
2017-01-26T03:12:06.937Z,84.42
2017-01-26T03:12:35.121Z,84.86
2017-01-26T03:13:03.298Z,84.13
2017-01-26T03:13:31.461Z,84.57
2017-01-26T03:13:59.687Z,84.47
2017-01-26T03:14:27.864Z,84.47
2017-01-26T03:14:56.010Z,84.42
2017-01-26T03:15:24.288Z,84.52
2017-01-26T03:15:52.459Z,84.52
2017-01-26T03:16:20.710Z,84.09
2017-01-26T03:16:48.874Z,83.89
2017-01-26T03:17:17.025Z,83.94
2017-01-26T03:17:45.329Z,84.03
2017-01-26T03:18:13.456Z,84.42
2017-01-26T03:18:42.128Z,83.99
2017-01-26T03:19:15.805Z,84.28
2017-01-26T03:19:44.036Z,84.47
2017-01-26T03:20:12.320Z,84.09
2017-01-26T03:20:40.525Z,84.28
2017-01-26T03:21:08.694Z,84.77
2017-01-26T03:21:36.852Z,84.47
2017-01-26T03:22:05.004Z,84.47
2017-01-26T03:22:33.164Z,84.47
2017-01-26T03:23:01.294Z,83.99
2017-01-26T03:23:29.433Z,83.89
2017-01-26T03:23:57.576Z,84.09
2017-01-26T03:24:25.960Z,84.09
2017-01-26T03:24:54.125Z,83.99
2017-01-26T03:25:22.407Z,83.45
2017-01-26T03:25:50.563Z,83.41
2017-01-26T03:26:18.753Z,83.31
2017-01-26T03:26:46.899Z,83.55
2017-01-26T03:27:15.038Z,83.16
2017-01-26T03:27:43.311Z,83.55
2017-01-26T03:28:11.497Z,83.64
2017-01-26T03:28:39.669Z,83.36
2017-01-26T03:29:07.839Z,83.45
2017-01-26T03:29:36.021Z,83.36
2017-01-26T03:30:04.201Z,83.36
2017-01-26T03:30:32.456Z,82.87
2017-01-26T03:31:00.606Z,82.97
2017-01-26T03:31:28.772Z,82.87
2017-01-26T03:31:56.961Z,82.68
2017-01-26T03:32:25.125Z,82.68
2017-01-26T03:32:53.297Z,82.87
2017-01-26T03:33:21.448Z,82.78
2017-01-26T03:33:49.621Z,82.78
2017-01-26T03:34:17.808Z,82.87
2017-01-26T03:34:46.011Z,82.78
2017-01-26T03:35:14.194Z,83.06
2017-01-26T03:35:42.376Z,82.97
2017-01-26T03:36:10.564Z,83.16
2017-01-26T03:36:38.773Z,83.06
2017-01-26T03:37:06.932Z,83.26
2017-01-26T03:37:35.110Z,82.68
2017-01-26T03:38:03.272Z,83.36
2017-01-26T03:38:31.459Z,83.06
2017-01-26T03:38:59.697Z,82.87
2017-01-26T03:39:27.845Z,82.87
2017-01-26T03:39:56.013Z,83.16
2017-01-26T03:40:24.162Z,82.68
2017-01-26T03:40:52.347Z,83.16
2017-01-26T03:41:20.477Z,84.22
2017-01-26T03:41:48.644Z,83.64
2017-01-26T03:42:16.781Z,82.87
2017-01-26T03:42:44.941Z,82.68
2017-01-26T03:43:13.125Z,82.68
2017-01-26T03:43:41.316Z,82.78
2017-01-26T03:44:09.620Z,82.68
2017-01-26T03:44:37.780Z,83.45
2017-01-26T03:45:05.938Z,83.64
2017-01-26T03:45:34.123Z,83.55
2017-01-26T03:46:02.282Z,83.45
2017-01-26T03:46:30.458Z,83.11
2017-01-26T03:46:58.610Z,83.16
2017-01-26T03:47:26.935Z,82.87
2017-01-26T03:47:55.064Z,83.59
2017-01-26T03:48:23.231Z,84.13
2017-01-26T03:48:51.418Z,83.94
2017-01-26T03:49:19.585Z,84.03
2017-01-26T03:49:47.731Z,84.03
2017-01-26T03:50:15.996Z,83.16
2017-01-26T03:50:44.483Z,83.45
2017-01-26T03:51:12.645Z,84.13
2017-01-26T03:51:40.809Z,82.97
2017-01-26T03:52:08.965Z,83.06
2017-01-26T03:52:37.201Z,82.97
2017-01-26T03:53:05.335Z,83.26
2017-01-26T03:53:33.523Z,83.55
2017-01-26T03:54:01.678Z,83.45
2017-01-26T03:54:30.066Z,83.64
2017-01-26T03:54:58.283Z,83.36
2017-01-26T03:55:26.473Z,84.22
2017-01-26T03:55:54.702Z,84.13
2017-01-26T03:56:22.843Z,84.13
2017-01-26T03:56:50.996Z,83.94
2017-01-26T03:57:19.172Z,84.32
2017-01-26T03:57:47.399Z,83.84
2017-01-26T03:58:15.567Z,83.64
2017-01-26T03:58:43.724Z,84.03
2017-01-26T03:59:11.890Z,84.03
2017-01-26T03:59:40.069Z,83.74
2017-01-26T04:00:08.259Z,83.26
2017-01-26T04:00:36.420Z,83.45
2017-01-26T04:01:04.555Z,83.45
2017-01-26T04:01:32.700Z,83.64
2017-01-26T04:02:00.933Z,83.45
2017-01-26T04:02:29.108Z,84.22
2017-01-26T04:02:57.249Z,83.94
2017-01-26T04:03:25.410Z,84.32
2017-01-26T04:03:53.574Z,83.94
2017-01-26T04:04:21.733Z,83.94
2017-01-26T04:04:49.868Z,83.36
2017-01-26T04:05:18.018Z,83.16
2017-01-26T04:05:46.225Z,83.45
2017-01-26T04:06:14.487Z,83.36
2017-01-26T04:06:42.653Z,83.16
2017-01-26T04:07:10.933Z,83.36
2017-01-26T04:07:39.071Z,83.94
2017-01-26T04:08:07.260Z,83.45
2017-01-26T04:08:35.417Z,83.26
2017-01-26T04:09:03.568Z,83.06
2017-01-26T04:09:31.784Z,82.87
2017-01-26T04:09:59.912Z,83.06
2017-01-26T04:10:28.141Z,83.26
2017-01-26T04:10:56.320Z,83.45
2017-01-26T04:11:24.668Z,83.36
2017-01-26T04:11:52.852Z,83.45
2017-01-26T04:12:21.011Z,83.61
2017-01-26T04:12:49.164Z,83.74
2017-01-26T04:13:17.307Z,83.55
2017-01-26T04:13:45.453Z,84.22
2017-01-26T04:14:13.607Z,83.26
2017-01-26T04:14:41.766Z,84.32
2017-01-26T04:15:09.930Z,83.8
2017-01-26T04:15:38.086Z,83.99
2017-01-26T04:16:06.277Z,83.41
2017-01-26T04:16:34.425Z,83.84
2017-01-26T04:17:02.575Z,83.84
2017-01-26T04:17:30.740Z,84.38
2017-01-26T04:17:58.886Z,84.38
2017-01-26T04:18:28.281Z,84.47
2017-01-26T04:19:00.029Z,83.99
2017-01-26T04:19:28.217Z,84.09
2017-01-26T04:19:56.400Z,84.67
2017-01-26T04:20:24.543Z,84.47
2017-01-26T04:20:52.693Z,84.57
2017-01-26T04:21:20.874Z,84.67
2017-01-26T04:21:49.013Z,84.38
2017-01-26T04:22:17.182Z,84.67
2017-01-26T04:22:45.326Z,84.28
2017-01-26T04:23:13.752Z,84.86
2017-01-26T04:23:41.913Z,84.67
2017-01-26T04:24:10.102Z,85.15
2017-01-26T04:24:38.292Z,84.57
2017-01-26T04:25:06.446Z,84.95
2017-01-26T04:25:34.688Z,84.38
2017-01-26T04:26:02.850Z,84.77
2017-01-26T04:26:31.008Z,84.67
2017-01-26T04:26:59.309Z,84.47
2017-01-26T04:27:27.461Z,84.67
2017-01-26T04:27:55.624Z,84.86
2017-01-26T04:28:23.784Z,84.86
2017-01-26T04:28:51.947Z,84.28
2017-01-26T04:29:20.109Z,84.86
2017-01-26T04:29:48.260Z,84.86
2017-01-26T04:30:16.445Z,85.44
2017-01-26T04:30:44.622Z,84.95
2017-01-26T04:31:12.771Z,84.57
2017-01-26T04:31:40.935Z,84.57
2017-01-26T04:32:09.095Z,84.77
2017-01-26T04:32:37.242Z,85.44
2017-01-26T04:33:05.462Z,85.35
2017-01-26T04:33:34.516Z,85.35
2017-01-26T04:34:02.658Z,85.15
2017-01-26T04:34:30.856Z,85.15
2017-01-26T04:34:59.034Z,84.82
2017-01-26T04:35:27.209Z,85.4
2017-01-26T04:35:55.382Z,85.35
2017-01-26T04:36:23.662Z,85.15
2017-01-26T04:36:51.826Z,85.73
2017-01-26T04:37:19.990Z,85.93
2017-01-26T04:37:48.170Z,85.73
2017-01-26T04:38:16.311Z,85.59
2017-01-26T04:38:44.467Z,86.02
2017-01-26T04:39:12.608Z,85.93
2017-01-26T04:39:40.767Z,85.93
2017-01-26T04:40:08.924Z,85.93
2017-01-26T04:40:37.082Z,86.02
2017-01-26T04:41:05.260Z,85.53
2017-01-26T04:41:33.448Z,85.44
2017-01-26T04:42:01.640Z,85.25
2017-01-26T04:42:30.934Z,85.44
2017-01-26T04:42:59.122Z,85.44
2017-01-26T04:43:27.495Z,85.53
2017-01-26T04:43:55.657Z,85.44
2017-01-26T04:44:25.618Z,85.05
2017-01-26T04:44:54.022Z,85.25
2017-01-26T04:45:22.207Z,85.05
2017-01-26T04:45:50.329Z,85.05
2017-01-26T04:46:18.542Z,85.35
2017-01-26T04:46:46.694Z,85.15
2017-01-26T04:47:14.882Z,85.05
2017-01-26T04:47:43.045Z,85.25
2017-01-26T04:48:11.221Z,85.44
2017-01-26T04:48:39.406Z,85.25
2017-01-26T04:49:07.631Z,85.15
2017-01-26T04:49:35.797Z,85.05
2017-01-26T04:50:03.938Z,85.15
2017-01-26T04:50:32.088Z,85.35
2017-01-26T04:51:00.338Z,85.44
2017-01-26T04:51:28.475Z,85.15
2017-01-26T04:51:56.629Z,85.05
2017-01-26T04:52:24.776Z,85.35
2017-01-26T04:52:52.916Z,84.95
2017-01-26T04:53:21.060Z,85.15
2017-01-26T04:53:49.207Z,84.86
2017-01-26T04:54:17.384Z,85.15
2017-01-26T04:54:45.542Z,85.25
2017-01-26T04:55:13.800Z,85.44
2017-01-26T04:55:41.956Z,85.25
2017-01-26T04:56:10.108Z,84.77
2017-01-26T04:56:38.252Z,85.25
2017-01-26T04:57:06.444Z,84.95
2017-01-26T04:57:34.693Z,84.67
2017-01-26T04:58:02.863Z,85.44
2017-01-26T04:58:31.030Z,84.95
2017-01-26T04:58:59.203Z,85.25
2017-01-26T04:59:27.487Z,84.86
2017-01-26T04:59:55.672Z,85.15
2017-01-26T05:00:23.917Z,85.25
2017-01-26T05:00:52.107Z,85.83
2017-01-26T05:01:20.295Z,85.83
2017-01-26T05:01:48.443Z,85.83
2017-01-26T05:02:16.698Z,85.83
2017-01-26T05:02:46.293Z,85.83
2017-01-26T05:03:14.751Z,86.21
2017-01-26T05:03:42.933Z,86.02
2017-01-26T05:04:11.096Z,85.93
2017-01-26T05:04:39.306Z,85.44
2017-01-26T05:05:07.484Z,85.44
2017-01-26T05:05:35.767Z,85.25
2017-01-26T05:06:03.996Z,85.11
2017-01-26T05:06:32.182Z,85.93
2017-01-26T05:07:00.388Z,85.88
2017-01-26T05:07:28.552Z,85.49
2017-01-26T05:07:56.728Z,85.53
2017-01-26T05:08:24.886Z,85.05
2017-01-26T05:08:53.047Z,85.49
2017-01-26T05:09:21.234Z,85.78
2017-01-26T05:09:49.446Z,85.83
2017-01-26T05:10:17.617Z,86.02
2017-01-26T05:10:45.791Z,86.36
2017-01-26T05:11:13.970Z,86.02
2017-01-26T05:11:42.142Z,86.02
2017-01-26T05:12:10.432Z,86.11
2017-01-26T05:12:38.714Z,86.46
2017-01-26T05:13:07.034Z,86.21
2017-01-26T05:13:35.221Z,86.41
2017-01-26T05:14:03.512Z,86.17
2017-01-26T05:14:31.679Z,85.98
2017-01-26T05:14:59.876Z,85.93
2017-01-26T05:15:28.048Z,85.59
2017-01-26T05:15:56.318Z,85.78
2017-01-26T05:16:24.511Z,85.78
2017-01-26T05:16:52.707Z,85.63
2017-01-26T05:17:20.905Z,85.4
2017-01-26T05:17:49.068Z,85.49
2017-01-26T05:18:17.393Z,85.98
2017-01-26T05:18:45.573Z,85.73
2017-01-26T05:19:13.731Z,86.46
2017-01-26T05:19:41.944Z,86.94
2017-01-26T05:20:10.087Z,87.33
2017-01-26T05:20:38.244Z,87.33
2017-01-26T05:21:06.512Z,86.85
2017-01-26T05:21:34.666Z,86.85
2017-01-26T05:22:02.860Z,87.23
2017-01-26T05:22:31.037Z,87.33
2017-01-26T05:22:59.228Z,87.43
2017-01-26T05:23:27.516Z,87.43
2017-01-26T05:23:55.712Z,87.04
2017-01-26T05:24:24.018Z,87.04
2017-01-26T05:24:52.217Z,87.13
2017-01-26T05:25:20.422Z,87.04
2017-01-26T05:25:48.575Z,87.33
2017-01-26T05:26:16.749Z,87.52
2017-01-26T05:26:44.922Z,87.52
2017-01-26T05:27:13.080Z,87.62
2017-01-26T05:27:41.242Z,87.43
2017-01-26T05:28:09.412Z,87.71
2017-01-26T05:28:37.594Z,88.29
2017-01-26T05:29:05.763Z,88.01
2017-01-26T05:29:33.916Z,88.29
2017-01-26T05:30:02.103Z,88.39
2017-01-26T05:30:30.300Z,88.68
2017-01-26T05:30:58.508Z,89.17
2017-01-26T05:31:26.694Z,88.97
2017-01-26T05:31:54.941Z,89.36
2017-01-26T05:32:23.099Z,89.84
2017-01-26T05:32:51.259Z,89.65
2017-01-26T05:33:19.498Z,89.61
2017-01-26T05:33:47.711Z,89.22
2017-01-26T05:34:15.886Z,89.61
2017-01-26T05:34:44.059Z,90.19
2017-01-26T05:35:12.229Z,90.28
2017-01-26T05:35:40.364Z,90.57
2017-01-26T05:36:08.544Z,90.09
2017-01-26T05:36:36.724Z,90.37
2017-01-26T05:37:04.912Z,90.09
2017-01-26T05:37:33.087Z,90.77
2017-01-26T05:38:01.268Z,90.77
2017-01-26T05:38:29.449Z,90.77
2017-01-26T05:38:57.621Z,90.19
2017-01-26T05:39:25.808Z,90.77
2017-01-26T05:39:54.017Z,90.57
2017-01-26T05:40:22.384Z,90.67
2017-01-26T05:40:50.562Z,90.57
2017-01-26T05:41:18.828Z,90.57
2017-01-26T05:41:46.995Z,90.67
2017-01-26T05:42:15.169Z,90.47
2017-01-26T05:42:43.416Z,90.77
2017-01-26T05:43:11.665Z,90.37
2017-01-26T05:43:39.942Z,90.47
2017-01-26T05:44:08.105Z,90.77
2017-01-26T05:44:36.262Z,90.77
2017-01-26T05:45:04.439Z,91.15
2017-01-26T05:45:32.604Z,90.86
2017-01-26T05:46:00.770Z,91.35
2017-01-26T05:46:28.938Z,91.15
2017-01-26T05:46:57.108Z,91.15
2017-01-26T05:47:25.356Z,91.39
2017-01-26T05:47:53.517Z,91.15
2017-01-26T05:48:21.673Z,91.35
2017-01-26T05:48:49.874Z,91.35
2017-01-26T05:49:18.109Z,91.3
2017-01-26T05:49:46.372Z,91.35
2017-01-26T05:50:14.558Z,91.35
2017-01-26T05:50:42.728Z,91.15
2017-01-26T05:51:10.983Z,91.44
2017-01-26T05:51:39.146Z,91.15
2017-01-26T05:52:07.321Z,91.44
2017-01-26T05:52:35.601Z,90.95
2017-01-26T05:53:03.782Z,90.86
2017-01-26T05:53:31.981Z,90.77
2017-01-26T05:54:00.162Z,90.57
2017-01-26T05:54:28.348Z,91.44
2017-01-26T05:54:56.518Z,90.86
2017-01-26T05:55:24.680Z,90.86
2017-01-26T05:55:52.865Z,91.15
2017-01-26T05:56:21.083Z,90.86
2017-01-26T05:56:49.247Z,90.77
2017-01-26T05:57:17.455Z,90.95
2017-01-26T05:57:45.661Z,91.53
2017-01-26T05:58:13.946Z,91.25
2017-01-26T05:58:42.150Z,91.15
2017-01-26T05:59:10.393Z,91.63
2017-01-26T05:59:38.576Z,91.15
2017-01-26T06:00:06.781Z,91.15
2017-01-26T06:00:34.931Z,91.25
2017-01-26T06:01:03.121Z,91.35
2017-01-26T06:01:31.298Z,90.86
2017-01-26T06:01:59.580Z,90.77
2017-01-26T06:02:27.732Z,90.47
2017-01-26T06:02:55.925Z,91.35
2017-01-26T06:03:24.105Z,91.35
2017-01-26T06:03:52.288Z,91.44
2017-01-26T06:04:20.480Z,91.15